createdAt,value
2018-12-21T00:00:46.864Z,88.40
2018-12-21T00:03:15.338Z,88.30
2018-12-21T00:05:43.816Z,88.50
2018-12-21T00:08:12.299Z,88.50
2018-12-21T00:10:40.970Z,88.40
2018-12-21T00:13:09.450Z,88.30
2018-12-21T00:15:37.913Z,88.30
2018-12-21T00:18:06.358Z,88.30
2018-12-21T00:20:34.870Z,88.40
2018-12-21T00:23:03.444Z,88.50
2018-12-21T00:25:32.029Z,88.50
2018-12-21T00:28:00.835Z,88.50
2018-12-21T00:30:28.659Z,88.60
2018-12-21T00:33:02.739Z,88.60
2018-12-21T00:35:36.629Z,88.70
2018-12-21T00:38:10.396Z,88.70
2018-12-21T00:40:43.973Z,88.70
2018-12-21T00:43:43.631Z,88.70
2018-12-21T00:46:16.291Z,88.60
2018-12-21T00:48:45.157Z,88.40
2018-12-21T00:51:13.615Z,88.40
2018-12-21T00:53:42.091Z,88.30
2018-12-21T00:56:10.596Z,88.30
2018-12-21T00:58:39.034Z,88.20
2018-12-21T01:01:07.827Z,88.10
2018-12-21T01:03:36.353Z,87.90
2018-12-21T01:06:04.907Z,87.60
2018-12-21T01:08:33.382Z,87.50
2018-12-21T01:11:02.015Z,87.70
2018-12-21T01:13:30.616Z,87.90
2018-12-21T01:15:59.142Z,88.10
2018-12-21T01:18:27.672Z,88.30
2018-12-21T01:20:56.130Z,88.20
2018-12-21T01:23:24.740Z,88.10
2018-12-21T01:25:53.668Z,87.90
2018-12-21T01:28:22.099Z,87.80
2018-12-21T01:30:50.659Z,87.80
2018-12-21T01:33:19.142Z,87.80
2018-12-21T01:35:47.594Z,87.70
2018-12-21T01:38:16.058Z,87.50
2018-12-21T01:40:44.895Z,87.90
2018-12-21T01:43:13.391Z,88.10
2018-12-21T01:45:41.860Z,88.10
2018-12-21T01:48:10.371Z,88.10
2018-12-21T01:50:38.854Z,88.20
2018-12-21T01:53:07.328Z,88.30
2018-12-21T01:55:35.878Z,88.30
2018-12-21T01:58:04.330Z,88.40
2018-12-21T02:00:32.914Z,88.50
2018-12-21T02:03:01.541Z,88.60
2018-12-21T02:05:30.036Z,88.90
2018-12-21T02:07:58.588Z,89.10
2018-12-21T02:10:27.103Z,89.40
2018-12-21T02:12:55.722Z,89.20
2018-12-21T02:15:24.226Z,89.30
2018-12-21T02:17:52.742Z,89.50
2018-12-21T02:20:21.430Z,89.60
2018-12-21T02:22:49.909Z,89.50
2018-12-21T02:25:18.405Z,89.50
2018-12-21T02:27:47.023Z,89.50
2018-12-21T02:30:15.485Z,89.50
2018-12-21T02:32:44.002Z,89.40
2018-12-21T02:35:12.618Z,89.30
2018-12-21T02:37:41.082Z,89.40
2018-12-21T02:40:09.611Z,89.50
2018-12-21T02:42:38.247Z,89.60
2018-12-21T02:45:07.624Z,89.40
2018-12-21T02:47:36.117Z,89.50
2018-12-21T02:50:04.838Z,89.70
2018-12-21T02:52:33.309Z,89.90
2018-12-21T02:55:01.838Z,89.80
2018-12-21T02:57:30.304Z,89.80
2018-12-21T02:59:58.729Z,90.00
2018-12-21T03:02:27.255Z,89.80
2018-12-21T03:04:55.695Z,89.90
2018-12-21T03:07:24.179Z,89.70
2018-12-21T03:09:52.711Z,89.60
2018-12-21T03:12:21.164Z,89.60
2018-12-21T03:14:49.590Z,89.50
2018-12-21T03:17:18.067Z,89.40
2018-12-21T03:19:46.536Z,89.40
2018-12-21T03:22:15.320Z,89.70
2018-12-21T03:24:43.907Z,89.70
2018-12-21T03:27:12.386Z,89.80
2018-12-21T03:29:40.799Z,89.40
2018-12-21T03:32:09.343Z,89.40
2018-12-21T03:34:37.795Z,89.60
2018-12-21T03:37:06.402Z,89.80
2018-12-21T03:39:35.292Z,89.90
2018-12-21T03:42:03.751Z,89.70
2018-12-21T03:44:32.203Z,89.50
2018-12-21T03:47:00.704Z,89.20
2018-12-21T03:49:29.193Z,89.00
2018-12-21T03:51:57.650Z,89.70
2018-12-21T03:54:26.175Z,88.70
2018-12-21T03:56:54.864Z,88.70
2018-12-21T03:59:23.308Z,88.60
2018-12-21T04:01:51.982Z,88.60
2018-12-21T04:04:20.395Z,88.60
2018-12-21T04:06:48.898Z,88.60
2018-12-21T04:09:17.380Z,88.70
2018-12-21T04:11:45.833Z,89.00
2018-12-21T04:14:14.332Z,89.30
2018-12-21T04:16:42.858Z,89.50
2018-12-21T04:19:11.460Z,89.80
2018-12-21T04:21:40.308Z,89.70
2018-12-21T04:24:08.790Z,90.50
2018-12-21T04:26:37.257Z,90.50
2018-12-21T04:29:05.726Z,90.70
2018-12-21T04:31:34.223Z,91.20
2018-12-21T04:34:02.700Z,90.80
2018-12-21T04:36:31.189Z,90.90
2018-12-21T04:38:59.697Z,91.10
2018-12-21T04:41:28.177Z,91.10
2018-12-21T04:43:56.658Z,91.00
2018-12-21T04:46:25.163Z,90.90
2018-12-21T04:48:53.864Z,90.70
2018-12-21T04:51:22.523Z,90.80
2018-12-21T04:53:50.994Z,90.80
2018-12-21T04:56:19.432Z,90.70
2018-12-21T04:58:47.882Z,90.60
2018-12-21T05:01:16.365Z,90.40
2018-12-21T05:03:44.801Z,90.40
2018-12-21T05:06:13.357Z,90.20
2018-12-21T05:08:41.847Z,90.00
2018-12-21T05:11:10.326Z,90.00
2018-12-21T05:13:38.782Z,90.00
2018-12-21T05:16:07.305Z,89.90
2018-12-21T05:18:35.948Z,89.80
2018-12-21T05:21:04.471Z,89.50
2018-12-21T05:23:33.022Z,88.80
2018-12-21T05:26:01.500Z,88.60
2018-12-21T05:28:29.942Z,88.50
2018-12-21T05:30:58.594Z,88.30
2018-12-21T05:33:27.058Z,88.30
2018-12-21T05:35:55.579Z,88.90
2018-12-21T05:38:24.287Z,88.00
2018-12-21T05:40:52.867Z,87.90
2018-12-21T05:43:21.318Z,87.80
2018-12-21T05:45:49.828Z,87.70
2018-12-21T05:48:18.278Z,87.30
2018-12-21T05:50:46.798Z,86.70
2018-12-21T05:53:15.336Z,86.60
2018-12-21T05:55:43.792Z,86.00
2018-12-21T05:58:12.276Z,85.80
2018-12-21T06:00:40.763Z,85.80
2018-12-21T06:03:09.256Z,85.80
2018-12-21T06:05:37.812Z,85.60
2018-12-21T06:08:06.331Z,85.60
2018-12-21T06:10:34.803Z,85.60
2018-12-21T06:13:03.253Z,85.30
2018-12-21T06:15:31.913Z,85.20
2018-12-21T06:18:00.343Z,85.30
2018-12-21T06:20:28.845Z,85.20
2018-12-21T06:22:57.391Z,84.90
2018-12-21T06:25:25.829Z,84.90
2018-12-21T06:27:54.297Z,84.80
2018-12-21T06:30:22.834Z,84.40
2018-12-21T06:32:51.294Z,84.30
2018-12-21T06:35:19.738Z,84.40
2018-12-21T06:37:48.584Z,84.70
2018-12-21T06:40:17.206Z,85.00
2018-12-21T06:42:45.673Z,85.20
2018-12-21T06:45:14.191Z,85.40
2018-12-21T06:47:42.687Z,85.60
2018-12-21T06:50:11.383Z,85.60
2018-12-21T06:52:39.856Z,85.60
2018-12-21T06:55:08.343Z,85.60
2018-12-21T06:57:36.811Z,85.50
2018-12-21T07:00:06.901Z,85.50
2018-12-21T07:02:35.413Z,85.70
2018-12-21T07:05:03.927Z,85.90
2018-12-21T07:07:32.417Z,86.30
2018-12-21T07:10:00.839Z,86.60
2018-12-21T07:12:29.283Z,86.90
2018-12-21T07:14:57.780Z,87.00
2018-12-21T07:17:26.342Z,87.20
2018-12-21T07:19:54.787Z,87.10
2018-12-21T07:22:23.267Z,87.20
2018-12-21T07:24:51.915Z,87.30
2018-12-21T07:27:20.411Z,88.20
2018-12-21T07:29:49.070Z,87.80
2018-12-21T07:32:17.563Z,88.00
2018-12-21T07:34:45.986Z,88.20
2018-12-21T07:37:14.500Z,88.40
2018-12-21T07:39:42.990Z,88.50
2018-12-21T07:42:11.467Z,88.60
2018-12-21T07:44:40.060Z,88.30
2018-12-21T07:47:08.535Z,88.50
2018-12-21T07:49:36.995Z,88.30
2018-12-21T07:52:05.495Z,88.30
2018-12-21T07:54:33.949Z,88.20
2018-12-21T07:57:02.392Z,88.20
2018-12-21T07:59:31.025Z,88.30
2018-12-21T08:01:59.501Z,88.30
2018-12-21T08:04:30.190Z,88.30
2018-12-21T08:06:58.485Z,88.20
2018-12-21T08:09:26.980Z,88.20
2018-12-21T08:11:55.445Z,88.20
2018-12-21T08:14:24.019Z,88.40
2018-12-21T08:16:52.498Z,88.50
2018-12-21T08:19:20.946Z,88.40
2018-12-21T08:21:49.435Z,88.40
2018-12-21T08:24:17.891Z,88.60
2018-12-21T08:26:46.370Z,88.80
2018-12-21T08:29:14.879Z,88.90
2018-12-21T08:31:43.308Z,88.90
2018-12-21T08:34:11.785Z,89.00
2018-12-21T08:36:40.403Z,88.70
2018-12-21T08:39:08.860Z,88.90
2018-12-21T08:41:37.334Z,89.50
2018-12-21T08:44:06.004Z,89.60
2018-12-21T08:46:34.445Z,89.60
2018-12-21T08:49:02.896Z,89.70
2018-12-21T08:51:31.365Z,89.80
2018-12-21T08:53:59.775Z,89.90
2018-12-21T08:56:28.270Z,89.90
2018-12-21T08:58:56.754Z,90.00
2018-12-21T09:01:25.213Z,90.00
2018-12-21T09:03:53.676Z,90.00
2018-12-21T09:06:22.148Z,90.00
2018-12-21T09:08:50.597Z,90.00
2018-12-21T09:11:19.043Z,90.10
2018-12-21T09:13:47.604Z,90.00
2018-12-21T09:16:16.086Z,90.10
2018-12-21T09:18:44.554Z,90.10
2018-12-21T09:21:13.059Z,90.00
2018-12-21T09:23:41.524Z,90.10
2018-12-21T09:26:10.021Z,90.00
2018-12-21T09:28:38.527Z,89.70
2018-12-21T09:31:06.969Z,88.90
2018-12-21T09:33:35.404Z,89.30
2018-12-21T09:36:03.942Z,90.00
2018-12-21T09:38:32.402Z,90.00
2018-12-21T09:41:01.016Z,90.10
2018-12-21T09:43:29.619Z,90.20
2018-12-21T09:45:58.085Z,90.20
2018-12-21T09:48:26.559Z,90.10
2018-12-21T09:50:55.094Z,90.00
2018-12-21T09:53:23.547Z,89.80
2018-12-21T09:55:52.021Z,90.00
2018-12-21T09:58:20.488Z,90.00
2018-12-21T10:00:48.964Z,89.90
2018-12-21T10:03:17.425Z,89.60
2018-12-21T10:05:46.048Z,89.60
2018-12-21T10:08:14.526Z,89.40
2018-12-21T10:10:43.008Z,89.40
2018-12-21T10:13:11.544Z,89.40
2018-12-21T10:15:40.016Z,89.50
2018-12-21T10:18:08.528Z,89.50
2018-12-21T10:20:37.190Z,89.50
2018-12-21T10:23:05.700Z,89.70
2018-12-21T10:25:34.135Z,89.90
2018-12-21T10:28:02.661Z,90.00
2018-12-21T10:30:31.146Z,90.00
2018-12-21T10:32:59.723Z,90.00
2018-12-21T10:35:28.291Z,90.00
2018-12-21T10:37:56.803Z,90.00
2018-12-21T10:40:25.285Z,90.00
2018-12-21T10:42:53.791Z,90.10
2018-12-21T10:45:22.274Z,90.10
2018-12-21T10:47:50.715Z,90.20
2018-12-21T10:50:19.222Z,90.30
2018-12-21T10:52:47.691Z,90.30
2018-12-21T10:55:16.148Z,90.30
2018-12-21T10:57:44.735Z,90.10
2018-12-21T11:00:13.561Z,89.80
2018-12-21T11:02:42.124Z,89.90
2018-12-21T11:05:10.655Z,89.80
2018-12-21T11:07:39.219Z,89.90
2018-12-21T11:10:10.495Z,90.00
2018-12-21T11:12:39.018Z,89.60
2018-12-21T11:15:07.646Z,89.00
2018-12-21T11:17:36.098Z,89.60
2018-12-21T11:20:05.643Z,90.00
2018-12-21T11:22:34.184Z,90.20
2018-12-21T11:25:02.926Z,90.10
2018-12-21T11:27:31.471Z,90.10
2018-12-21T11:29:59.954Z,90.50
2018-12-21T11:32:28.435Z,90.60
2018-12-21T11:34:57.000Z,90.60
2018-12-21T11:37:25.572Z,90.80
2018-12-21T11:39:54.235Z,91.10
2018-12-21T11:42:22.743Z,91.10
2018-12-21T11:44:51.193Z,91.30
2018-12-21T11:47:19.758Z,91.30
2018-12-21T11:49:48.280Z,91.30
2018-12-21T11:52:16.854Z,91.40
2018-12-21T11:54:45.359Z,91.30
2018-12-21T11:57:13.889Z,91.20
2018-12-21T11:59:45.029Z,91.20
2018-12-21T12:02:19.499Z,91.00
2018-12-21T12:04:43.355Z,91.00
2018-12-21T12:07:12.084Z,91.00
2018-12-21T12:09:40.560Z,91.00
2018-12-21T12:12:09.181Z,90.90
2018-12-21T12:14:37.742Z,90.70
2018-12-21T12:17:06.291Z,90.70
2018-12-21T12:19:34.795Z,90.50
2018-12-21T12:22:03.254Z,90.40
2018-12-21T12:24:31.847Z,90.20
2018-12-21T12:27:00.358Z,90.10
2018-12-21T12:29:28.837Z,90.00
2018-12-21T12:31:57.306Z,90.00
2018-12-21T12:34:25.968Z,90.30
2018-12-21T12:36:54.511Z,90.40
2018-12-21T12:39:22.921Z,90.50
2018-12-21T12:41:51.562Z,90.20
2018-12-21T12:44:20.007Z,90.10
2018-12-21T12:46:48.426Z,90.20
2018-12-21T12:49:16.938Z,90.10
2018-12-21T12:51:45.511Z,90.10
2018-12-21T12:54:13.966Z,90.10
2018-12-21T12:56:42.533Z,89.30
2018-12-21T12:59:10.956Z,89.30
2018-12-21T13:01:39.680Z,89.50
2018-12-21T13:04:08.286Z,89.10
2018-12-21T13:06:36.744Z,89.20
2018-12-21T13:09:07.245Z,89.40
2018-12-21T13:11:36.046Z,89.30
2018-12-21T13:14:04.604Z,89.50
2018-12-21T13:16:33.051Z,89.60
2018-12-21T13:19:01.615Z,89.30
2018-12-21T13:21:30.294Z,88.50
2018-12-21T13:23:58.884Z,88.20
2018-12-21T13:26:27.411Z,87.30
2018-12-21T13:28:55.944Z,87.20
2018-12-21T13:31:24.394Z,87.30
2018-12-21T13:33:52.967Z,87.30
2018-12-21T13:36:21.505Z,87.10
2018-12-21T13:38:49.954Z,87.00
2018-12-21T13:41:18.804Z,87.00
2018-12-21T13:43:47.338Z,87.10
2018-12-21T13:46:15.788Z,87.20
2018-12-21T13:48:44.265Z,87.40
2018-12-21T13:51:12.797Z,87.30
2018-12-21T13:53:41.535Z,87.40
2018-12-21T13:56:10.056Z,87.40
2018-12-21T13:58:38.660Z,87.50
2018-12-21T14:01:07.118Z,87.70
2018-12-21T14:03:35.618Z,88.00
2018-12-21T14:06:04.175Z,88.00
2018-12-21T14:08:32.812Z,87.60
2018-12-21T14:11:01.323Z,87.60
2018-12-21T14:13:29.829Z,87.90
2018-12-21T14:15:58.295Z,88.00
2018-12-21T14:18:26.817Z,87.80
2018-12-21T14:20:55.244Z,87.70
2018-12-21T14:23:23.742Z,87.90
2018-12-21T14:25:52.708Z,87.90
2018-12-21T14:28:21.114Z,87.60
2018-12-21T14:30:49.540Z,87.70
2018-12-21T14:33:18.172Z,87.90
2018-12-21T14:35:46.677Z,88.20
2018-12-21T14:38:15.152Z,88.10
2018-12-21T14:40:43.635Z,88.40
2018-12-21T14:43:12.122Z,89.30
2018-12-21T14:45:40.561Z,89.10
2018-12-21T14:48:09.227Z,89.20
2018-12-21T14:50:37.855Z,89.30
2018-12-21T14:53:06.417Z,89.30
2018-12-21T14:55:37.578Z,89.30
2018-12-21T14:58:05.394Z,89.20
2018-12-21T15:00:33.873Z,89.80
2018-12-21T15:03:02.387Z,89.20
2018-12-21T15:05:30.823Z,89.30
2018-12-21T15:07:59.280Z,89.40
2018-12-21T15:10:27.820Z,89.30
2018-12-21T15:12:56.237Z,89.30
2018-12-21T15:15:24.891Z,89.30
2018-12-21T15:17:53.414Z,89.30
2018-12-21T15:20:21.970Z,89.30
2018-12-21T15:22:50.637Z,89.30
2018-12-21T15:25:19.152Z,89.30
2018-12-21T15:27:47.703Z,89.70
2018-12-21T15:30:16.163Z,90.00
2018-12-21T15:32:44.728Z,90.00
2018-12-21T15:35:13.547Z,90.00
2018-12-21T15:37:42.333Z,90.00
2018-12-21T15:40:11.707Z,90.10
2018-12-21T15:42:40.175Z,90.10
2018-12-21T15:45:08.898Z,90.10
2018-12-21T15:47:37.375Z,90.10
2018-12-21T15:50:08.054Z,90.00
2018-12-21T15:52:36.471Z,90.00
2018-12-21T15:55:05.567Z,90.00
2018-12-21T15:57:34.388Z,90.00
2018-12-21T16:00:02.986Z,90.00
2018-12-21T16:02:31.484Z,89.90
2018-12-21T16:05:00.087Z,89.80
2018-12-21T16:07:28.937Z,89.80
2018-12-21T16:09:57.446Z,89.90
2018-12-21T16:12:25.889Z,89.80
2018-12-21T16:14:54.329Z,90.20
2018-12-21T16:17:22.816Z,89.80
2018-12-21T16:19:51.381Z,89.90
2018-12-21T16:22:19.809Z,90.00
2018-12-21T16:24:48.300Z,90.00
2018-12-21T16:27:16.854Z,90.10
2018-12-21T16:29:45.323Z,90.10
2018-12-21T16:32:14.259Z,90.00
2018-12-21T16:34:42.688Z,90.10
2018-12-21T16:37:11.148Z,90.10
2018-12-21T16:39:39.639Z,90.10
2018-12-21T16:42:08.071Z,90.10
2018-12-21T16:44:36.600Z,90.00
2018-12-21T16:47:05.061Z,90.00
2018-12-21T16:49:33.492Z,90.00
2018-12-21T16:52:01.939Z,90.00
2018-12-21T16:54:30.454Z,89.90
2018-12-21T16:56:58.926Z,89.80
2018-12-21T16:59:27.393Z,89.90
2018-12-21T17:01:56.165Z,89.90
2018-12-21T17:04:24.571Z,90.00
2018-12-21T17:06:53.109Z,90.10
2018-12-21T17:09:21.584Z,90.10
2018-12-21T17:11:50.083Z,90.10
2018-12-21T17:14:18.504Z,90.20
2018-12-21T17:16:46.958Z,90.20
2018-12-21T17:19:18.150Z,90.20
2018-12-21T17:21:46.662Z,90.20
2018-12-21T17:24:15.140Z,90.20
2018-12-21T17:26:45.508Z,90.10
2018-12-21T17:29:13.947Z,90.00
2018-12-21T17:31:42.422Z,90.00
2018-12-21T17:34:10.838Z,90.00
2018-12-21T17:36:39.430Z,90.00
2018-12-21T17:39:08.496Z,89.90
2018-12-21T17:41:36.951Z,90.00
2018-12-21T17:44:05.357Z,90.00
2018-12-21T17:46:33.854Z,89.90
2018-12-21T17:49:02.291Z,89.90
2018-12-21T17:51:30.830Z,89.90
2018-12-21T17:53:59.297Z,89.90
2018-12-21T17:56:30.018Z,89.90
2018-12-21T17:58:58.164Z,89.90
2018-12-21T18:01:26.812Z,89.80
2018-12-21T18:04:22.611Z,89.80
2018-12-21T18:06:51.097Z,90.20
2018-12-21T18:09:20.023Z,89.80
2018-12-21T18:11:57.003Z,89.70
2018-12-21T18:14:18.975Z,89.50
2018-12-21T18:16:47.385Z,89.40
2018-12-21T18:19:15.809Z,89.30
2018-12-21T18:21:52.759Z,89.30
2018-12-21T18:24:21.967Z,89.30
2018-12-21T18:26:50.375Z,89.20
2018-12-21T18:29:18.851Z,89.00
2018-12-21T18:31:52.929Z,89.20
2018-12-21T18:34:35.834Z,89.30
2018-12-21T18:37:06.771Z,89.40
2018-12-21T18:39:35.194Z,89.70
2018-12-21T18:42:05.706Z,89.90
2018-12-21T18:44:34.415Z,89.70
2018-12-21T18:47:02.884Z,89.70
2018-12-21T18:49:31.344Z,89.70
2018-12-21T18:51:59.883Z,89.70
2018-12-21T18:54:28.675Z,89.80
2018-12-21T18:57:05.003Z,89.90
2018-12-21T18:59:33.431Z,90.00
2018-12-21T19:02:02.048Z,90.00
2018-12-21T19:04:30.511Z,90.10
2018-12-21T19:06:59.010Z,90.00
2018-12-21T19:09:27.455Z,90.00
2018-12-21T19:11:55.960Z,90.00
2018-12-21T19:14:24.538Z,90.10
2018-12-21T19:16:53.030Z,90.10
2018-12-21T19:19:21.767Z,90.10
2018-12-21T19:21:50.230Z,90.20
2018-12-21T19:24:18.639Z,90.30
2018-12-21T19:26:55.574Z,90.20
2018-12-21T19:29:17.587Z,90.40
2018-12-21T19:31:46.026Z,90.40
2018-12-21T19:34:14.491Z,90.30
2018-12-21T19:36:43.060Z,90.30
2018-12-21T19:39:12.191Z,90.40
2018-12-21T19:41:40.689Z,90.30
2018-12-21T19:44:09.103Z,90.40
2018-12-21T19:46:37.771Z,90.40
2018-12-21T19:49:06.365Z,90.30
2018-12-21T19:51:34.779Z,90.20
2018-12-21T19:54:03.347Z,90.20
2018-12-21T19:57:08.590Z,90.20
2018-12-21T19:59:37.046Z,90.10
2018-12-21T20:02:05.847Z,90.10
2018-12-21T20:04:34.664Z,90.00
2018-12-21T20:07:03.305Z,90.00
2018-12-21T20:09:31.728Z,90.00
2018-12-21T20:12:00.218Z,89.90
2018-12-21T20:14:28.778Z,90.00
2018-12-21T20:16:57.387Z,90.10
2018-12-21T20:19:25.890Z,90.10
2018-12-21T20:21:54.452Z,90.00
2018-12-21T20:24:25.922Z,90.00
2018-12-21T20:26:58.487Z,90.00
2018-12-21T20:29:27.042Z,90.00
2018-12-21T20:31:55.483Z,90.00
2018-12-21T20:34:23.971Z,90.00
2018-12-21T20:36:52.547Z,90.10
2018-12-21T20:39:23.807Z,90.00
2018-12-21T20:41:52.303Z,90.00
2018-12-21T20:44:20.714Z,90.00
2018-12-21T20:46:49.136Z,89.80
2018-12-21T20:49:17.713Z,89.60
2018-12-21T20:51:46.134Z,89.70
2018-12-21T20:54:14.594Z,90.00
2018-12-21T20:56:46.335Z,90.00
2018-12-21T20:59:19.465Z,90.20
2018-12-21T21:01:48.163Z,90.20
2018-12-21T21:04:16.566Z,90.30
2018-12-21T21:06:44.963Z,90.40
2018-12-21T21:09:14.279Z,90.40
2018-12-21T21:11:42.749Z,90.50
2018-12-21T21:14:13.028Z,90.50
2018-12-21T21:16:41.624Z,90.60
2018-12-21T21:19:10.147Z,90.60
2018-12-21T21:21:39.207Z,90.60
2018-12-21T21:24:07.800Z,90.70
2018-12-21T21:26:36.258Z,90.70
2018-12-21T21:29:04.706Z,90.70
2018-12-21T21:31:35.203Z,90.60
2018-12-21T21:34:03.746Z,90.60
2018-12-21T21:36:32.207Z,90.70
2018-12-21T21:39:00.700Z,90.70
2018-12-21T21:41:29.128Z,90.70
2018-12-21T21:43:57.940Z,90.60
2018-12-21T21:46:26.477Z,90.60
2018-12-21T21:48:54.959Z,90.70
2018-12-21T21:51:23.367Z,90.90
2018-12-21T21:53:51.867Z,91.00
2018-12-21T21:56:20.318Z,91.00
2018-12-21T21:58:48.715Z,90.90
2018-12-21T22:01:17.214Z,90.90
2018-12-21T22:03:45.726Z,90.80
2018-12-21T22:06:14.188Z,90.80
2018-12-21T22:08:42.735Z,90.80
2018-12-21T22:11:11.187Z,90.90
2018-12-21T22:13:39.619Z,90.90
2018-12-21T22:16:08.131Z,90.70
2018-12-21T22:18:36.579Z,90.70
2018-12-21T22:21:05.082Z,90.70
2018-12-21T22:23:33.557Z,90.60
2018-12-21T22:26:01.971Z,90.50
2018-12-21T22:28:30.494Z,90.50
2018-12-21T22:30:58.947Z,90.20
2018-12-21T22:33:27.395Z,90.10
2018-12-21T22:35:55.866Z,90.10
2018-12-21T22:38:24.351Z,90.30
2018-12-21T22:40:52.797Z,90.30
2018-12-21T22:43:21.263Z,90.10
2018-12-21T22:45:49.728Z,90.20
2018-12-21T22:48:18.154Z,90.10
2018-12-21T22:50:46.571Z,90.20
2018-12-21T22:53:15.119Z,90.20
2018-12-21T22:55:43.614Z,90.20
2018-12-21T22:58:12.043Z,90.20
2018-12-21T23:00:40.718Z,90.20
2018-12-21T23:03:09.265Z,90.10
2018-12-21T23:05:37.745Z,90.20
2018-12-21T23:08:06.353Z,90.20
2018-12-21T23:10:34.808Z,90.10
2018-12-21T23:13:03.346Z,90.10
2018-12-21T23:15:31.815Z,90.10
2018-12-21T23:18:00.263Z,90.10
2018-12-21T23:20:28.960Z,90.10
2018-12-21T23:22:57.655Z,90.10
2018-12-21T23:25:26.127Z,90.10
2018-12-21T23:27:54.535Z,90.10
2018-12-21T23:30:23.005Z,90.40
2018-12-21T23:32:51.410Z,90.00
2018-12-21T23:35:19.922Z,90.00
2018-12-21T23:37:48.392Z,90.10
2018-12-21T23:40:17.077Z,90.10
2018-12-21T23:42:45.555Z,90.10
2018-12-21T23:45:14.055Z,90.10
2018-12-21T23:47:42.606Z,90.10
2018-12-21T23:50:11.075Z,90.10
2018-12-21T23:52:39.681Z,90.20
2018-12-21T23:55:08.156Z,90.20
2018-12-21T23:57:36.588Z,90.20
